sensor_id;sensor_type;location;lat;lon;timestamp;pressure;altitude;pressure_sealevel;temperature;humidity
62849;BME280;48941;49.516;8.286;2022-12-07T00:01:19;100565.66;;;3.88;93.36
62849;BME280;48941;49.516;8.286;2022-12-07T00:03:49;100562.97;;;3.90;93.17
62849;BME280;48941;49.516;8.286;2022-12-07T00:06:18;100563.75;;;3.92;93.17
62849;BME280;48941;49.516;8.286;2022-12-07T00:08:48;100561.19;;;3.90;93.24
62849;BME280;48941;49.516;8.286;2022-12-07T00:11:18;100569.16;;;3.89;93.50
62849;BME280;48941;49.516;8.286;2022-12-07T00:13:47;100561.19;;;3.90;93.56
62849;BME280;48941;49.516;8.286;2022-12-07T00:16:17;100563.81;;;3.90;93.38
62849;BME280;48941;49.516;8.286;2022-12-07T00:18:45;100555.13;;;3.88;93.60
62849;BME280;48941;49.516;8.286;2022-12-07T00:21:14;100548.06;;;3.89;93.59
62849;BME280;48941;49.516;8.286;2022-12-07T00:23:44;100547.06;;;3.91;93.46
62849;BME280;48941;49.516;8.286;2022-12-07T00:26:15;100548.00;;;3.90;93.63
62849;BME280;48941;49.516;8.286;2022-12-07T00:28:46;100548.84;;;3.91;93.43
62849;BME280;48941;49.516;8.286;2022-12-07T00:31:16;100542.03;;;3.87;93.75
62849;BME280;48941;49.516;8.286;2022-12-07T00:33:45;100549.94;;;3.87;93.72
62849;BME280;48941;49.516;8.286;2022-12-07T00:36:15;100542.97;;;3.86;93.52
62849;BME280;48941;49.516;8.286;2022-12-07T00:38:50;100551.72;;;3.86;93.88
62849;BME280;48941;49.516;8.286;2022-12-07T00:41:21;100545.81;;;3.81;94.85
62849;BME280;48941;49.516;8.286;2022-12-07T00:43:50;100545.19;;;3.76;95.35
62849;BME280;48941;49.516;8.286;2022-12-07T00:46:18;100539.00;;;3.77;94.88
62849;BME280;48941;49.516;8.286;2022-12-07T00:48:47;100539.69;;;3.81;94.16
62849;BME280;48941;49.516;8.286;2022-12-07T00:51:17;100546.69;;;3.82;94.79
62849;BME280;48941;49.516;8.286;2022-12-07T00:53:45;100539.69;;;3.81;94.92
62849;BME280;48941;49.516;8.286;2022-12-07T00:56:15;100543.34;;;3.78;94.96
62849;BME280;48941;49.516;8.286;2022-12-07T00:58:49;100541.56;;;3.78;95.25
62849;BME280;48941;49.516;8.286;2022-12-07T01:01:17;100539.00;;;3.77;95.34
62849;BME280;48941;49.516;8.286;2022-12-07T01:03:45;100538.91;;;3.78;95.28
62849;BME280;48941;49.516;8.286;2022-12-07T01:06:14;100535.56;;;3.75;95.28
62849;BME280;48941;49.516;8.286;2022-12-07T01:08:43;100544.19;;;3.78;94.45
62849;BME280;48941;49.516;8.286;2022-12-07T01:11:14;100542.41;;;3.79;95.10
62849;BME280;48941;49.516;8.286;2022-12-07T01:13:42;100543.28;;;3.79;94.80
62849;BME280;48941;49.516;8.286;2022-12-07T01:16:14;100530.88;;;3.82;94.52
62849;BME280;48941;49.516;8.286;2022-12-07T01:18:45;100525.69;;;3.80;93.76
62849;BME280;48941;49.516;8.286;2022-12-07T01:21:16;100520.41;;;3.80;93.77
62849;BME280;48941;49.516;8.286;2022-12-07T01:23:44;100530.88;;;3.82;93.65
62849;BME280;48941;49.516;8.286;2022-12-07T01:26:14;100525.44;;;3.85;93.43
62849;BME280;48941;49.516;8.286;2022-12-07T01:28:42;100532.31;;;3.87;92.81
62849;BME280;48941;49.516;8.286;2022-12-07T01:31:13;100522.66;;;3.88;92.51
62849;BME280;48941;49.516;8.286;2022-12-07T01:33:43;100524.34;;;3.89;91.79
62849;BME280;48941;49.516;8.286;2022-12-07T01:36:14;100521.72;;;3.89;92.05
62849;BME280;48941;49.516;8.286;2022-12-07T01:38:42;100520.09;;;3.86;91.96
62849;BME280;48941;49.516;8.286;2022-12-07T01:41:11;100536.94;;;3.84;92.49
62849;BME280;48941;49.516;8.286;2022-12-07T01:44:15;100540.53;;;3.81;93.17
62849;BME280;48941;49.516;8.286;2022-12-07T01:46:46;100539.88;;;3.77;93.75
62849;BME280;48941;49.516;8.286;2022-12-07T01:49:33;100540.63;;;3.79;93.33
62849;BME280;48941;49.516;8.286;2022-12-07T01:52:07;100540.63;;;3.79;93.62
62849;BME280;48941;49.516;8.286;2022-12-07T01:54:37;100538.00;;;3.79;93.05
62849;BME280;48941;49.516;8.286;2022-12-07T01:57:06;100533.41;;;3.83;92.37
62849;BME280;48941;49.516;8.286;2022-12-07T01:59:35;100536.03;;;3.83;92.21
62849;BME280;48941;49.516;8.286;2022-12-07T02:02:08;100538.53;;;3.86;92.46
62849;BME280;48941;49.516;8.286;2022-12-07T02:04:38;100541.19;;;3.86;92.56
62849;BME280;48941;49.516;8.286;2022-12-07T02:07:06;100543.75;;;3.88;92.82
62849;BME280;48941;49.516;8.286;2022-12-07T02:09:34;100535.84;;;3.88;92.61
62849;BME280;48941;49.516;8.286;2022-12-07T02:12:02;100532.25;;;3.89;92.49
62849;BME280;48941;49.516;8.286;2022-12-07T02:14:30;100527.84;;;3.89;92.36
62849;BME280;48941;49.516;8.286;2022-12-07T02:17:09;100514.81;;;3.86;91.88
62849;BME280;48941;49.516;8.286;2022-12-07T02:23:07;100523.19;;;3.77;92.11
62849;BME280;48941;49.516;8.286;2022-12-07T02:25:57;100512.09;;;3.70;92.53
62849;BME280;48941;49.516;8.286;2022-12-07T02:28:32;100514.97;;;3.66;92.59
62849;BME280;48941;49.516;8.286;2022-12-07T02:31:07;100516.13;;;3.60;92.95
62849;BME280;48941;49.516;8.286;2022-12-07T02:33:41;100513.69;;;3.55;93.33
62849;BME280;48941;49.516;8.286;2022-12-07T02:36:16;100511.38;;;3.49;93.80
62849;BME280;48941;49.516;8.286;2022-12-07T02:38:50;100514.94;;;3.48;93.73
62849;BME280;48941;49.516;8.286;2022-12-07T02:41:26;100514.94;;;3.48;93.62
62849;BME280;48941;49.516;8.286;2022-12-07T02:43:59;100514.16;;;3.46;93.80
62849;BME280;48941;49.516;8.286;2022-12-07T02:46:32;100506.41;;;3.43;93.82
62849;BME280;48941;49.516;8.286;2022-12-07T02:49:01;100509.91;;;3.44;93.32
62849;BME280;48941;49.516;8.286;2022-12-07T02:51:30;100504.72;;;3.42;93.08
62849;BME280;48941;49.516;8.286;2022-12-07T02:53:58;100499.38;;;3.44;92.88
62849;BME280;48941;49.516;8.286;2022-12-07T02:56:32;100494.00;;;3.45;92.59
62849;BME280;48941;49.516;8.286;2022-12-07T02:59:17;100496.75;;;3.44;92.63
62849;BME280;48941;49.516;8.286;2022-12-07T03:01:57;100487.00;;;3.46;92.51
62849;BME280;48941;49.516;8.286;2022-12-07T03:04:40;100494.78;;;3.47;91.84
62849;BME280;48941;49.516;8.286;2022-12-07T03:07:18;100488.59;;;3.48;91.90
62849;BME280;48941;49.516;8.286;2022-12-07T03:09:54;100491.06;;;3.51;91.54
62849;BME280;48941;49.516;8.286;2022-12-07T03:12:29;100489.31;;;3.52;91.22
62849;BME280;48941;49.516;8.286;2022-12-07T03:15:02;100482.19;;;3.54;90.98
62849;BME280;48941;49.516;8.286;2022-12-07T03:17:37;100478.63;;;3.55;90.44
62849;BME280;48941;49.516;8.286;2022-12-07T03:20:09;100483.03;;;3.54;90.38
62849;BME280;48941;49.516;8.286;2022-12-07T03:22:40;100485.44;;;3.59;89.92
62849;BME280;48941;49.516;8.286;2022-12-07T03:25:11;100484.44;;;3.62;89.56
62849;BME280;48941;49.516;8.286;2022-12-07T03:27:45;100471.28;;;3.62;89.67
62849;BME280;48941;49.516;8.286;2022-12-07T03:30:18;100474.75;;;3.62;89.88
62849;BME280;48941;49.516;8.286;2022-12-07T03:32:50;100473.91;;;3.62;89.35
62849;BME280;48941;49.516;8.286;2022-12-07T03:35:23;100471.19;;;3.63;89.45
62849;BME280;48941;49.516;8.286;2022-12-07T03:37:55;100465.00;;;3.64;89.16
62849;BME280;48941;49.516;8.286;2022-12-07T03:40:27;100467.47;;;3.67;89.02
62849;BME280;48941;49.516;8.286;2022-12-07T03:42:57;100467.47;;;3.67;88.93
62849;BME280;48941;49.516;8.286;2022-12-07T03:45:38;100462.19;;;3.67;89.05
62849;BME280;48941;49.516;8.286;2022-12-07T03:48:16;100459.50;;;3.69;88.70
62849;BME280;48941;49.516;8.286;2022-12-07T03:50:52;100462.91;;;3.71;88.70
62849;BME280;48941;49.516;8.286;2022-12-07T03:53:22;100469.97;;;3.70;88.38
62849;BME280;48941;49.516;8.286;2022-12-07T03:55:52;100469.88;;;3.72;88.60
62849;BME280;48941;49.516;8.286;2022-12-07T03:58:22;100463.66;;;3.73;88.34
62849;BME280;48941;49.516;8.286;2022-12-07T04:00:50;100462.69;;;3.75;88.09
62849;BME280;48941;49.516;8.286;2022-12-07T04:03:20;100468.94;;;3.73;88.29
62849;BME280;48941;49.516;8.286;2022-12-07T04:05:48;100461.81;;;3.75;88.53
62849;BME280;48941;49.516;8.286;2022-12-07T04:08:16;100475.06;;;3.73;88.70
62849;BME280;48941;49.516;8.286;2022-12-07T04:10:44;100470.59;;;3.75;88.38
62849;BME280;48941;49.516;8.286;2022-12-07T04:13:12;100471.38;;;3.77;87.89
62849;BME280;48941;49.516;8.286;2022-12-07T04:15:40;100471.25;;;3.79;87.56
62849;BME280;48941;49.516;8.286;2022-12-07T04:18:08;100472.91;;;3.82;87.30
62849;BME280;48941;49.516;8.286;2022-12-07T04:20:37;100470.19;;;3.83;87.57
62849;BME280;48941;49.516;8.286;2022-12-07T04:23:05;100472.75;;;3.85;86.97
62849;BME280;48941;49.516;8.286;2022-12-07T04:25:33;100478.78;;;3.87;87.49
62849;BME280;48941;49.516;8.286;2022-12-07T04:28:00;100475.13;;;3.89;87.17
62849;BME280;48941;49.516;8.286;2022-12-07T04:30:28;100467.31;;;3.88;87.32
62849;BME280;48941;49.516;8.286;2022-12-07T04:32:56;100460.25;;;3.88;86.38
62849;BME280;48941;49.516;8.286;2022-12-07T04:35:23;100463.59;;;3.92;86.55
62849;BME280;48941;49.516;8.286;2022-12-07T04:37:53;100454.81;;;3.91;86.31
62849;BME280;48941;49.516;8.286;2022-12-07T04:40:20;100458.22;;;3.93;86.16
62849;BME280;48941;49.516;8.286;2022-12-07T04:42:48;100457.38;;;3.93;85.86
62849;BME280;48941;49.516;8.286;2022-12-07T04:45:16;100457.25;;;3.96;85.74
62849;BME280;48941;49.516;8.286;2022-12-07T04:47:43;100459.81;;;3.97;86.01
62849;BME280;48941;49.516;8.286;2022-12-07T04:50:11;100459.03;;;3.95;86.98
62849;BME280;48941;49.516;8.286;2022-12-07T04:52:39;100457.25;;;3.96;86.97
62849;BME280;48941;49.516;8.286;2022-12-07T04:55:08;100455.38;;;3.98;86.83
62849;BME280;48941;49.516;8.286;2022-12-07T04:57:36;100451.72;;;4.01;86.38
62849;BME280;48941;49.516;8.286;2022-12-07T05:00:05;100455.13;;;4.03;86.84
62849;BME280;48941;49.516;8.286;2022-12-07T05:02:33;100455.06;;;4.04;87.12
62849;BME280;48941;49.516;8.286;2022-12-07T05:05:01;100451.41;;;4.07;86.29
62849;BME280;48941;49.516;8.286;2022-12-07T05:07:28;100446.06;;;4.08;86.58
62849;BME280;48941;49.516;8.286;2022-12-07T05:09:56;100447.75;;;4.09;86.60
62849;BME280;48941;49.516;8.286;2022-12-07T05:12:25;100453.72;;;4.13;86.67
62849;BME280;48941;49.516;8.286;2022-12-07T05:14:53;100456.34;;;4.13;86.93
62849;BME280;48941;49.516;8.286;2022-12-07T05:17:21;100449.31;;;4.13;86.89
62849;BME280;48941;49.516;8.286;2022-12-07T05:19:49;100458.13;;;4.12;87.92
62849;BME280;48941;49.516;8.286;2022-12-07T05:22:16;100454.47;;;4.15;87.34
62849;BME280;48941;49.516;8.286;2022-12-07T05:24:44;100460.63;;;4.15;87.59
62849;BME280;48941;49.516;8.286;2022-12-07T05:27:12;100456.28;;;4.14;87.13
62849;BME280;48941;49.516;8.286;2022-12-07T05:29:41;100452.72;;;4.15;87.59
62849;BME280;48941;49.516;8.286;2022-12-07T05:32:09;100450.75;;;4.19;87.49
62849;BME280;48941;49.516;8.286;2022-12-07T05:34:36;100447.34;;;4.17;87.69
62849;BME280;48941;49.516;8.286;2022-12-07T05:37:04;100451.53;;;4.21;88.10
62849;BME280;48941;49.516;8.286;2022-12-07T05:39:32;100447.34;;;4.17;88.22
62849;BME280;48941;49.516;8.286;2022-12-07T05:42:00;100452.63;;;4.17;88.53
62849;BME280;48941;49.516;8.286;2022-12-07T05:44:42;100457.88;;;4.17;88.89
62849;BME280;48941;49.516;8.286;2022-12-07T05:47:10;100463.28;;;4.15;89.13
62849;BME280;48941;49.516;8.286;2022-12-07T05:49:38;100453.63;;;4.14;89.45
62849;BME280;48941;49.516;8.286;2022-12-07T05:52:06;100453.56;;;4.16;89.62
62849;BME280;48941;49.516;8.286;2022-12-07T05:54:34;100447.44;;;4.15;89.14
62849;BME280;48941;49.516;8.286;2022-12-07T05:57:02;100450.09;;;4.15;89.00
62849;BME280;48941;49.516;8.286;2022-12-07T05:59:29;100450.16;;;4.14;89.10
62849;BME280;48941;49.516;8.286;2022-12-07T06:01:59;100451.94;;;4.13;89.37
62849;BME280;48941;49.516;8.286;2022-12-07T06:04:29;100442.31;;;4.12;89.83
62849;BME280;48941;49.516;8.286;2022-12-07T06:06:58;100447.75;;;4.09;89.65
62849;BME280;48941;49.516;8.286;2022-12-07T06:09:27;100451.06;;;4.13;89.55
62849;BME280;48941;49.516;8.286;2022-12-07T06:11:55;100453.88;;;4.10;89.02
62849;BME280;48941;49.516;8.286;2022-12-07T06:14:49;100451.31;;;4.08;89.63
62849;BME280;48941;49.516;8.286;2022-12-07T06:17:18;100444.19;;;4.10;89.51
62849;BME280;48941;49.516;8.286;2022-12-07T06:19:46;100452.16;;;4.09;89.40
62849;BME280;48941;49.516;8.286;2022-12-07T06:22:14;100453.13;;;4.08;89.46
62849;BME280;48941;49.516;8.286;2022-12-07T06:24:42;100452.88;;;4.12;89.73
62849;BME280;48941;49.516;8.286;2022-12-07T06:27:10;100447.91;;;4.06;89.64
62849;BME280;48941;49.516;8.286;2022-12-07T06:29:38;100451.47;;;4.05;90.05
62849;BME280;48941;49.516;8.286;2022-12-07T06:32:06;100446.06;;;4.08;90.03
62849;BME280;48941;49.516;8.286;2022-12-07T06:34:35;100451.41;;;4.07;90.39
62849;BME280;48941;49.516;8.286;2022-12-07T06:37:03;100457.63;;;4.06;90.69
62849;BME280;48941;49.516;8.286;2022-12-07T06:39:31;100455.81;;;4.06;90.57
62849;BME280;48941;49.516;8.286;2022-12-07T06:41:59;100456.91;;;4.02;90.31
62849;BME280;48941;49.516;8.286;2022-12-07T06:44:26;100463.03;;;4.03;90.51
62849;BME280;48941;49.516;8.286;2022-12-07T06:46:54;100460.41;;;4.03;90.68
62849;BME280;48941;49.516;8.286;2022-12-07T06:49:44;100463.81;;;4.05;90.64
62849;BME280;48941;49.516;8.286;2022-12-07T06:52:12;100461.16;;;4.05;90.60
62849;BME280;48941;49.516;8.286;2022-12-07T06:54:39;100455.13;;;4.03;91.02
62849;BME280;48941;49.516;8.286;2022-12-07T06:57:07;100461.25;;;4.03;91.10
62849;BME280;48941;49.516;8.286;2022-12-07T06:59:35;100459.47;;;4.04;91.11
62849;BME280;48941;49.516;8.286;2022-12-07T07:02:03;100463.88;;;4.03;91.25
62849;BME280;48941;49.516;8.286;2022-12-07T07:04:31;100466.44;;;4.05;90.78
62849;BME280;48941;49.516;8.286;2022-12-07T07:07:00;100477.00;;;4.05;91.13
62849;BME280;48941;49.516;8.286;2022-12-07T07:09:28;100469.84;;;4.07;90.71
62849;BME280;48941;49.516;8.286;2022-12-07T07:11:55;100473.34;;;4.07;90.97
62849;BME280;48941;49.516;8.286;2022-12-07T07:14:23;100470.63;;;4.09;90.82
62849;BME280;48941;49.516;8.286;2022-12-07T07:16:51;100470.69;;;4.07;91.08
62849;BME280;48941;49.516;8.286;2022-12-07T07:19:19;100475.91;;;4.09;90.78
62849;BME280;48941;49.516;8.286;2022-12-07T07:21:47;100473.97;;;4.12;90.54
62849;BME280;48941;49.516;8.286;2022-12-07T07:24:16;100476.66;;;4.11;90.63
62849;BME280;48941;49.516;8.286;2022-12-07T07:26:44;100485.41;;;4.11;90.62
62849;BME280;48941;49.516;8.286;2022-12-07T07:29:12;100475.81;;;4.10;90.83
62849;BME280;48941;49.516;8.286;2022-12-07T07:31:39;100475.81;;;4.10;90.91
62849;BME280;48941;49.516;8.286;2022-12-07T07:34:07;100483.66;;;4.12;90.87
62849;BME280;48941;49.516;8.286;2022-12-07T07:36:35;100477.38;;;4.14;90.73
62849;BME280;48941;49.516;8.286;2022-12-07T07:39:03;100483.41;;;4.16;90.75
62849;BME280;48941;49.516;8.286;2022-12-07T07:41:32;100484.25;;;4.17;90.41
62849;BME280;48941;49.516;8.286;2022-12-07T07:44:00;100490.41;;;4.17;90.87
62849;BME280;48941;49.516;8.286;2022-12-07T07:46:28;100492.94;;;4.19;91.14
62849;BME280;48941;49.516;8.286;2022-12-07T07:48:56;100486.75;;;4.20;90.65
62849;BME280;48941;49.516;8.286;2022-12-07T07:51:23;100494.59;;;4.22;91.05
62849;BME280;48941;49.516;8.286;2022-12-07T07:53:51;100495.44;;;4.22;91.22
62849;BME280;48941;49.516;8.286;2022-12-07T07:56:19;100495.34;;;4.24;91.12
62849;BME280;48941;49.516;8.286;2022-12-07T07:58:51;100496.97;;;4.26;91.11
62849;BME280;48941;49.516;8.286;2022-12-07T08:01:19;100508.34;;;4.27;91.12
62849;BME280;48941;49.516;8.286;2022-12-07T08:03:47;100506.50;;;4.29;91.34
62849;BME280;48941;49.516;8.286;2022-12-07T08:06:15;100512.41;;;4.34;91.43
62849;BME280;48941;49.516;8.286;2022-12-07T08:08:43;100509.56;;;4.37;91.46
62849;BME280;48941;49.516;8.286;2022-12-07T08:11:11;100511.06;;;4.43;91.57
62849;BME280;48941;49.516;8.286;2022-12-07T08:13:39;100506.47;;;4.46;90.75
62849;BME280;48941;49.516;8.286;2022-12-07T08:16:10;100508.84;;;4.51;90.52
62849;BME280;48941;49.516;8.286;2022-12-07T08:18:40;100508.72;;;4.54;90.36
62849;BME280;48941;49.516;8.286;2022-12-07T08:21:12;100508.53;;;4.57;89.86
62849;BME280;48941;49.516;8.286;2022-12-07T08:23:40;100513.72;;;4.58;89.17
62849;BME280;48941;49.516;8.286;2022-12-07T08:26:10;100506.75;;;4.57;89.50
62849;BME280;48941;49.516;8.286;2022-12-07T08:28:38;100512.81;;;4.59;89.29
62849;BME280;48941;49.516;8.286;2022-12-07T08:31:10;100506.59;;;4.61;89.17
62849;BME280;48941;49.516;8.286;2022-12-07T08:33:38;100505.66;;;4.62;88.94
62849;BME280;48941;49.516;8.286;2022-12-07T08:36:08;100508.13;;;4.65;89.65
62849;BME280;48941;49.516;8.286;2022-12-07T08:38:38;100508.13;;;4.65;89.31
62849;BME280;48941;49.516;8.286;2022-12-07T08:41:17;100507.03;;;4.69;88.89
62849;BME280;48941;49.516;8.286;2022-12-07T08:43:45;100511.19;;;4.73;89.10
62849;BME280;48941;49.516;8.286;2022-12-07T08:46:19;100510.09;;;4.77;89.18
62849;BME280;48941;49.516;8.286;2022-12-07T08:48:51;100508.91;;;4.83;89.60
62849;BME280;48941;49.516;8.286;2022-12-07T08:51:21;100507.03;;;4.85;89.39
62849;BME280;48941;49.516;8.286;2022-12-07T08:53:50;100502.31;;;4.91;88.07
62849;BME280;48941;49.516;8.286;2022-12-07T08:56:19;100510.81;;;4.96;87.79
62849;BME280;48941;49.516;8.286;2022-12-07T08:58:48;100510.47;;;5.03;87.92
62849;BME280;48941;49.516;8.286;2022-12-07T09:01:17;100509.34;;;5.07;86.95
62849;BME280;48941;49.516;8.286;2022-12-07T09:03:45;100508.25;;;5.11;86.80
62849;BME280;48941;49.516;8.286;2022-12-07T09:06:13;100515.06;;;5.15;87.15
62849;BME280;48941;49.516;8.286;2022-12-07T09:08:45;100507.81;;;5.18;86.71
62849;BME280;48941;49.516;8.286;2022-12-07T09:11:14;100504.25;;;5.19;86.67
62849;BME280;48941;49.516;8.286;2022-12-07T09:13:41;100517.28;;;5.23;86.92
62849;BME280;48941;49.516;8.286;2022-12-07T09:16:09;100510.88;;;5.27;86.61
62849;BME280;48941;49.516;8.286;2022-12-07T09:18:39;100508.16;;;5.28;86.17
62849;BME280;48941;49.516;8.286;2022-12-07T09:21:07;100514.06;;;5.33;86.54
62849;BME280;48941;49.516;8.286;2022-12-07T09:23:35;100512.94;;;5.37;86.39
62849;BME280;48941;49.516;8.286;2022-12-07T09:26:04;100518.78;;;5.43;85.22
62849;BME280;48941;49.516;8.286;2022-12-07T09:28:36;100517.69;;;5.47;85.75
62849;BME280;48941;49.516;8.286;2022-12-07T09:31:05;100519.91;;;5.54;84.80
62849;BME280;48941;49.516;8.286;2022-12-07T09:33:54;100522.38;;;5.57;84.36
62849;BME280;48941;49.516;8.286;2022-12-07T09:36:22;100524.47;;;5.67;83.86
62849;BME280;48941;49.516;8.286;2022-12-07T09:38:50;100524.22;;;5.71;83.69
62849;BME280;48941;49.516;8.286;2022-12-07T09:41:18;100519.34;;;5.79;82.89
62849;BME280;48941;49.516;8.286;2022-12-07T09:43:46;100523.66;;;5.81;83.02
62849;BME280;48941;49.516;8.286;2022-12-07T09:46:16;100518.22;;;5.84;83.04
62849;BME280;48941;49.516;8.286;2022-12-07T09:48:47;100516.34;;;5.86;83.24
62849;BME280;48941;49.516;8.286;2022-12-07T09:51:19;100526.91;;;5.86;83.23
62849;BME280;48941;49.516;8.286;2022-12-07T09:53:52;100516.25;;;5.87;83.11
62849;BME280;48941;49.516;8.286;2022-12-07T09:56:21;100517.94;;;5.88;83.14
62849;BME280;48941;49.516;8.286;2022-12-07T09:58:51;100507.66;;;5.84;82.48
62849;BME280;48941;49.516;8.286;2022-12-07T10:01:22;100502.09;;;5.88;83.05
62849;BME280;48941;49.516;8.286;2022-12-07T10:03:53;100510.09;;;5.87;83.66
62849;BME280;48941;49.516;8.286;2022-12-07T10:06:23;100503.13;;;5.86;83.24
62849;BME280;48941;49.516;8.286;2022-12-07T10:08:51;100503.81;;;5.89;83.15
62849;BME280;48941;49.516;8.286;2022-12-07T10:11:19;100500.13;;;5.92;82.13
62849;BME280;48941;49.516;8.286;2022-12-07T10:13:49;100505.31;;;5.93;82.20
62849;BME280;48941;49.516;8.286;2022-12-07T10:16:37;100496.44;;;5.94;82.28
62849;BME280;48941;49.516;8.286;2022-12-07T10:19:21;100501.16;;;5.89;82.47
62849;BME280;48941;49.516;8.286;2022-12-07T10:22:03;100493.22;;;5.89;82.73
62849;BME280;48941;49.516;8.286;2022-12-07T10:24:31;100497.38;;;5.93;82.90
62849;BME280;48941;49.516;8.286;2022-12-07T10:26:59;100490.38;;;5.92;83.32
62849;BME280;48941;49.516;8.286;2022-12-07T10:29:30;100494.16;;;5.88;82.93
62849;BME280;48941;49.516;8.286;2022-12-07T10:32:00;100489.53;;;5.92;82.69
62849;BME280;48941;49.516;8.286;2022-12-07T10:34:30;100488.69;;;5.91;82.39
62849;BME280;48941;49.516;8.286;2022-12-07T10:37:16;100480.66;;;5.93;82.66
62849;BME280;48941;49.516;8.286;2022-12-07T10:39:46;100477.09;;;5.94;82.29
62849;BME280;48941;49.516;8.286;2022-12-07T10:42:19;100485.94;;;5.93;82.21
62849;BME280;48941;49.516;8.286;2022-12-07T10:44:48;100469.94;;;5.96;82.44
62849;BME280;48941;49.516;8.286;2022-12-07T10:47:32;100470.78;;;5.96;83.18
62849;BME280;48941;49.516;8.286;2022-12-07T10:50:29;100470.41;;;6.03;82.76
62849;BME280;48941;49.516;8.286;2022-12-07T10:53:14;100465.31;;;6.00;80.96
62849;BME280;48941;49.516;8.286;2022-12-07T10:56:06;100458.41;;;5.97;81.47
62849;BME280;48941;49.516;8.286;2022-12-07T10:58:47;100456.09;;;5.91;81.19
62849;BME280;48941;49.516;8.286;2022-12-07T11:01:24;100467.72;;;5.88;80.73
62849;BME280;48941;49.516;8.286;2022-12-07T11:04:10;100462.50;;;5.87;80.02
62849;BME280;48941;49.516;8.286;2022-12-07T11:06:47;100470.44;;;5.87;79.57
62849;BME280;48941;49.516;8.286;2022-12-07T11:09:51;100466.78;;;5.89;78.91
62849;BME280;48941;49.516;8.286;2022-12-07T11:12:50;100461.94;;;5.82;78.11
62849;BME280;48941;49.516;8.286;2022-12-07T11:15:24;100460.16;;;5.82;79.61
62849;BME280;48941;49.516;8.286;2022-12-07T11:17:58;100452.31;;;5.81;79.44
62849;BME280;48941;49.516;8.286;2022-12-07T11:20:37;100450.25;;;5.86;80.18
62849;BME280;48941;49.516;8.286;2022-12-07T11:23:14;100446.56;;;5.88;80.54
62849;BME280;48941;49.516;8.286;2022-12-07T11:25:50;100443.63;;;5.93;81.48
62849;BME280;48941;49.516;8.286;2022-12-07T11:28:30;100433.19;;;5.91;79.95
62849;BME280;48941;49.516;8.286;2022-12-07T11:31:08;100430.19;;;5.97;79.09
62849;BME280;48941;49.516;8.286;2022-12-07T11:33:41;100428.22;;;6.01;79.05
62849;BME280;48941;49.516;8.286;2022-12-07T11:36:16;100424.53;;;6.04;79.52
62849;BME280;48941;49.516;8.286;2022-12-07T11:38:45;100420.75;;;6.08;78.71
62849;BME280;48941;49.516;8.286;2022-12-07T11:41:20;100421.44;;;6.11;78.31
62849;BME280;48941;49.516;8.286;2022-12-07T11:43:54;100419.16;;;6.20;76.79
62849;BME280;48941;49.516;8.286;2022-12-07T11:46:25;100411.78;;;6.25;76.62
62849;BME280;48941;49.516;8.286;2022-12-07T11:49:01;100411.97;;;6.36;76.54
62849;BME280;48941;49.516;8.286;2022-12-07T11:51:33;100415.56;;;6.49;75.36
62849;BME280;48941;49.516;8.286;2022-12-07T11:54:11;100417.44;;;6.62;74.90
62849;BME280;48941;49.516;8.286;2022-12-07T11:56:43;100411.53;;;6.71;74.36
62849;BME280;48941;49.516;8.286;2022-12-07T11:59:17;100406.72;;;6.77;74.49
62849;BME280;48941;49.516;8.286;2022-12-07T12:01:53;100401.78;;;6.86;73.89
62849;BME280;48941;49.516;8.286;2022-12-07T12:04:29;100405.44;;;6.97;73.84
62849;BME280;48941;49.516;8.286;2022-12-07T12:06:58;100394.09;;;6.95;73.47
62849;BME280;48941;49.516;8.286;2022-12-07T12:09:50;100404.06;;;7.05;72.88
62849;BME280;48941;49.516;8.286;2022-12-07T12:12:58;100397.94;;;7.04;71.88
62849;BME280;48941;49.516;8.286;2022-12-07T12:16:07;100400.78;;;7.01;72.21
62849;BME280;48941;49.516;8.286;2022-12-07T12:18:47;100405.13;;;7.02;73.03
62849;BME280;48941;49.516;8.286;2022-12-07T12:21:22;100391.34;;;6.97;72.81
62849;BME280;48941;49.516;8.286;2022-12-07T12:23:57;100383.59;;;6.94;73.42
62849;BME280;48941;49.516;8.286;2022-12-07T12:26:28;100377.72;;;6.89;73.30
62849;BME280;48941;49.516;8.286;2022-12-07T12:29:00;100377.28;;;6.82;72.70
62849;BME280;48941;49.516;8.286;2022-12-07T12:31:36;100384.69;;;6.77;73.08
62849;BME280;48941;49.516;8.286;2022-12-07T12:34:30;100372.31;;;6.77;72.38
62849;BME280;48941;49.516;8.286;2022-12-07T12:36:59;100377.03;;;6.72;72.98
62849;BME280;48941;49.516;8.286;2022-12-07T12:39:27;100378.38;;;6.65;72.74
62849;BME280;48941;49.516;8.286;2022-12-07T12:41:57;100370.53;;;6.64;73.61
62849;BME280;48941;49.516;8.286;2022-12-07T12:45:03;100367.31;;;6.58;73.09
62849;BME280;48941;49.516;8.286;2022-12-07T12:47:41;100373.75;;;6.54;74.22
62849;BME280;48941;49.516;8.286;2022-12-07T12:50:17;100362.63;;;6.49;74.74
62849;BME280;48941;49.516;8.286;2022-12-07T12:52:50;100369.44;;;6.53;74.67
62849;BME280;48941;49.516;8.286;2022-12-07T12:58:29;100368.03;;;6.48;75.05
62849;BME280;48941;49.516;8.286;2022-12-07T13:04:50;100353.66;;;6.52;75.38
62849;BME280;48941;49.516;8.286;2022-12-07T13:10:20;100353.34;;;6.56;73.99
62849;BME280;48941;49.516;8.286;2022-12-07T13:12:56;100348.06;;;6.56;73.62
62849;BME280;48941;49.516;8.286;2022-12-07T13:15:35;100343.81;;;6.54;73.09
62849;BME280;48941;49.516;8.286;2022-12-07T13:18:23;100341.34;;;6.51;73.22
62849;BME280;48941;49.516;8.286;2022-12-07T13:20:54;100340.59;;;6.49;74.05
62849;BME280;48941;49.516;8.286;2022-12-07T13:23:25;100331.72;;;6.50;73.69
62849;BME280;48941;49.516;8.286;2022-12-07T13:26:23;100325.59;;;6.49;73.27
62849;BME280;48941;49.516;8.286;2022-12-07T13:29:06;100334.47;;;6.48;73.34
62849;BME280;48941;49.516;8.286;2022-12-07T13:31:36;100323.13;;;6.46;73.52
62849;BME280;48941;49.516;8.286;2022-12-07T13:34:30;100321.63;;;6.42;73.85
62849;BME280;48941;49.516;8.286;2022-12-07T13:37:00;100323.84;;;6.35;73.49
62849;BME280;48941;49.516;8.286;2022-12-07T13:39:28;100322.50;;;6.28;74.24